Atlantic Osprey — CFH8950 — position and weather

sailwx.info

Track history (hours):
 
Tides and Currents Weather Stations Pressure Air Temp Water Temp Dewpoint Dewpoint Depression Visibility Wind Speed Wind Dir Waves Ship Positions

Atlantic Osprey

Last reported at 2017-Mar-24 12:31 UTC. Time now 2017-Mar-25 07:52 UTC.
Position N 47°32' W 052°30'.

Length 3 m; draft 6.2 m.

Type: Tug. MMSI: 316004850.

Date/timePositionNaut miles runAvg speedWind from/ knotsBaromVisibWave heightAir tempDewpointWater temp
2017-Mar-24 12:31N 47°32' W 052°30'8 8.2
2017-Mar-24 11:30N 47°34' W 052°42'0 0.0
2017-Mar-24 10:30N 47°34' W 052°42'0 0.0
2017-Mar-24 09:30N 47°34' W 052°42'0 0.0
2017-Mar-24 08:28N 47°34' W 052°42'0 0.0
2017-Mar-24 07:29N 47°34' W 052°42'0 0.0
2017-Mar-24 06:29N 47°34' W 052°42'0 0.0
2017-Mar-24 05:30N 47°34' W 052°42'0 0.0
2017-Mar-24 04:31N 47°34' W 052°42'0 0.0
2017-Mar-24 03:31N 47°34' W 052°42'0 0.0
2017-Mar-24 02:26N 47°34' W 052°42'0 0.0
2017-Mar-23 21:24N 47°34' W 052°42'0 0.0
2017-Mar-23 20:30N 47°34' W 052°42'0 0.0
2017-Mar-23 19:25N 47°34' W 052°42'0 0.5
2017-Mar-23 18:32N 47°34' W 052°42'0 0.0
2017-Mar-23 17:29N 47°34' W 052°42'0 0.0
2017-Mar-23 16:33N 47°34' W 052°42'0 0.0
2017-Mar-23 15:31N 47°34' W 052°42'0 0.0
2017-Mar-23 14:30N 47°34' W 052°42'0 0.5
2017-Mar-23 13:30N 47°34' W 052°42'0 0.0
2017-Mar-23 08:07N 47°34' W 052°42'0 0.0
2017-Mar-23 07:17N 47°34' W 052°42'0 0.0
2017-Mar-23 06:28N 47°34' W 052°42'0 0.0
2017-Mar-23 05:26N 47°34' W 052°42'0 0.0
2017-Mar-23 04:17N 47°34' W 052°42'0 0.0
2017-Mar-23 03:29N 47°34' W 052°42'0 0.0
2017-Mar-23 02:31N 47°34' W 052°42'0 0.0
2017-Mar-22 15:24N 47°34' W 052°42'5 5.7
2017-Mar-22 14:31N 47°33' W 052°34'  
2017-Mar-17 22:11N 47°30' W 052°16'810.9
2017-Mar-17 21:30N 47°32' W 052°27'1110.1
2017-Mar-17 20:27N 47°34' W 052°42'0 0.1
2017-Mar-17 19:31N 47°34' W 052°42'0 0.0
2017-Mar-17 18:31N 47°34' W 052°42'0 0.0
2017-Mar-17 17:31N 47°34' W 052°42'0 0.0
2017-Mar-17 16:29N 47°34' W 052°42'0 0.0
2017-Mar-17 15:29N 47°34' W 052°42'0 0.0
2017-Mar-17 14:32N 47°34' W 052°42'0 0.0
2017-Mar-17 13:29N 47°34' W 052°42'0 0.0
2017-Mar-17 12:30N 47°34' W 052°42'0 0.0
2017-Mar-17 11:24N 47°34' W 052°42'0 0.0
2017-Mar-17 10:29N 47°34' W 052°42'0 0.0
2017-Mar-17 09:29N 47°34' W 052°42'0 0.0
2017-Mar-17 08:33N 47°34' W 052°42'0 0.0
2017-Mar-17 07:33N 47°34' W 052°42'0 0.0
2017-Mar-17 06:33N 47°34' W 052°42'0 0.0
2017-Mar-17 05:32N 47°34' W 052°42'0 0.0
2017-Mar-17 04:32N 47°34' W 052°42'0 0.0
2017-Mar-17 03:32N 47°34' W 052°42'0 0.0
2017-Mar-17 02:31N 47°34' W 052°42'0 0.0
2017-Mar-17 01:30N 47°34' W 052°42'0 0.0
2017-Mar-17 00:30N 47°34' W 052°42'0 0.0
2017-Mar-16 22:27N 47°34' W 052°42'0 0.0
2017-Mar-16 21:29N 47°34' W 052°42'0 0.0
2017-Mar-16 20:29N 47°34' W 052°42'0 0.0
2017-Mar-16 19:29N 47°34' W 052°42'0 0.0
2017-Mar-16 18:31N 47°34' W 052°42'0 0.0
2017-Mar-16 17:29N 47°34' W 052°42'0 0.0
2017-Mar-16 16:32N 47°34' W 052°42'0 0.0
2017-Mar-16 15:30N 47°34' W 052°42'0 0.0
2017-Mar-16 14:29N 47°34' W 052°42'0 0.0
2017-Mar-16 13:33N 47°34' W 052°42'0 0.0
2017-Mar-16 12:29N 47°34' W 052°42'0 0.0
2017-Mar-16 11:31N 47°34' W 052°42'2 1.8
2017-Mar-16 10:24N 47°34' W 052°39'  
Track history (hours):
 
Tides and Currents Weather Stations Pressure Air Temp Water Temp Dewpoint Dewpoint Depression Visibility Wind Speed Wind Dir Waves Ship Positions

Atlantic Osprey

Last reported at 2017-Mar-24 12:31 UTC. Time now 2017-Mar-25 07:52 UTC.
Position N 47°32' W 052°30'.

Length 3 m; draft 6.2 m.

Type: Tug. MMSI: 316004850.

Date/timePositionNaut miles runAvg speedWind from/ knotsBaromVisibWave heightAir tempDewpointWater temp
2017-Mar-24 12:31N 47°32' W 052°30'8 8.2
2017-Mar-24 11:30N 47°34' W 052°42'0 0.0
2017-Mar-24 10:30N 47°34' W 052°42'0 0.0
2017-Mar-24 09:30N 47°34' W 052°42'0 0.0
2017-Mar-24 08:28N 47°34' W 052°42'0 0.0
2017-Mar-24 07:29N 47°34' W 052°42'0 0.0
2017-Mar-24 06:29N 47°34' W 052°42'0 0.0
2017-Mar-24 05:30N 47°34' W 052°42'0 0.0
2017-Mar-24 04:31N 47°34' W 052°42'0 0.0
2017-Mar-24 03:31N 47°34' W 052°42'0 0.0
2017-Mar-24 02:26N 47°34' W 052°42'0 0.0
2017-Mar-23 21:24N 47°34' W 052°42'0 0.0
2017-Mar-23 20:30N 47°34' W 052°42'0 0.0
2017-Mar-23 19:25N 47°34' W 052°42'0 0.5
2017-Mar-23 18:32N 47°34' W 052°42'0 0.0
2017-Mar-23 17:29N 47°34' W 052°42'0 0.0
2017-Mar-23 16:33N 47°34' W 052°42'0 0.0
2017-Mar-23 15:31N 47°34' W 052°42'0 0.0
2017-Mar-23 14:30N 47°34' W 052°42'0 0.5
2017-Mar-23 13:30N 47°34' W 052°42'0 0.0
2017-Mar-23 08:07N 47°34' W 052°42'0 0.0
2017-Mar-23 07:17N 47°34' W 052°42'0 0.0
2017-Mar-23 06:28N 47°34' W 052°42'0 0.0
2017-Mar-23 05:26N 47°34' W 052°42'0 0.0
2017-Mar-23 04:17N 47°34' W 052°42'0 0.0
2017-Mar-23 03:29N 47°34' W 052°42'0 0.0
2017-Mar-23 02:31N 47°34' W 052°42'0 0.0
2017-Mar-22 15:24N 47°34' W 052°42'5 5.7
2017-Mar-22 14:31N 47°33' W 052°34'  
2017-Mar-17 22:11N 47°30' W 052°16'810.9
2017-Mar-17 21:30N 47°32' W 052°27'1110.1
2017-Mar-17 20:27N 47°34' W 052°42'0 0.1
2017-Mar-17 19:31N 47°34' W 052°42'0 0.0
2017-Mar-17 18:31N 47°34' W 052°42'0 0.0
2017-Mar-17 17:31N 47°34' W 052°42'0 0.0
2017-Mar-17 16:29N 47°34' W 052°42'0 0.0
2017-Mar-17 15:29N 47°34' W 052°42'0 0.0
2017-Mar-17 14:32N 47°34' W 052°42'0 0.0
2017-Mar-17 13:29N 47°34' W 052°42'0 0.0
2017-Mar-17 12:30N 47°34' W 052°42'0 0.0
2017-Mar-17 11:24N 47°34' W 052°42'0 0.0
2017-Mar-17 10:29N 47°34' W 052°42'0 0.0
2017-Mar-17 09:29N 47°34' W 052°42'0 0.0
2017-Mar-17 08:33N 47°34' W 052°42'0 0.0
2017-Mar-17 07:33N 47°34' W 052°42'0 0.0
2017-Mar-17 06:33N 47°34' W 052°42'0 0.0
2017-Mar-17 05:32N 47°34' W 052°42'0 0.0
2017-Mar-17 04:32N 47°34' W 052°42'0 0.0
2017-Mar-17 03:32N 47°34' W 052°42'0 0.0
2017-Mar-17 02:31N 47°34' W 052°42'0 0.0
2017-Mar-17 01:30N 47°34' W 052°42'0 0.0
2017-Mar-17 00:30N 47°34' W 052°42'0 0.0
2017-Mar-16 22:27N 47°34' W 052°42'0 0.0
2017-Mar-16 21:29N 47°34' W 052°42'0 0.0
2017-Mar-16 20:29N 47°34' W 052°42'0 0.0
2017-Mar-16 19:29N 47°34' W 052°42'0 0.0
2017-Mar-16 18:31N 47°34' W 052°42'0 0.0
2017-Mar-16 17:29N 47°34' W 052°42'0 0.0
2017-Mar-16 16:32N 47°34' W 052°42'0 0.0
2017-Mar-16 15:30N 47°34' W 052°42'0 0.0
2017-Mar-16 14:29N 47°34' W 052°42'0 0.0
2017-Mar-16 13:33N 47°34' W 052°42'0 0.0
2017-Mar-16 12:29N 47°34' W 052°42'0 0.0
2017-Mar-16 11:31N 47°34' W 052°42'2 1.8
2017-Mar-16 10:24N 47°34' W 052°39'  

Dump ship's entire track history